sensor_id;sensor_type;location;lat;lon;timestamp;pressure;altitude;pressure_sealevel;temperature;humidity
77543;BME280;66669;52.100;5.104;2023-02-28T00:00:28;103181.47;;;19.15;38.06
77543;BME280;66669;52.100;5.104;2023-02-28T00:02:53;103177.63;;;19.25;38.29
77543;BME280;66669;52.100;5.104;2023-02-28T00:05:22;103177.75;;;19.19;38.20
77543;BME280;66669;52.100;5.104;2023-02-28T00:07:49;103170.56;;;19.18;38.50
77543;BME280;66669;52.100;5.104;2023-02-28T00:10:20;103168.91;;;19.17;37.75
77543;BME280;66669;52.100;5.104;2023-02-28T00:12:48;103173.00;;;19.20;38.00
77543;BME280;66669;52.100;5.104;2023-02-28T00:15:14;103176.00;;;19.24;38.31
77543;BME280;66669;52.100;5.104;2023-02-28T00:17:40;103171.06;;;19.20;37.71
77543;BME280;66669;52.100;5.104;2023-02-28T00:20:06;103171.16;;;19.29;38.56
77543;BME280;66669;52.100;5.104;2023-02-28T00:22:36;103176.31;;;19.22;37.92
77543;BME280;66669;52.100;5.104;2023-02-28T00:25:02;103177.44;;;19.21;38.87
77543;BME280;66669;52.100;5.104;2023-02-28T00:27:27;103183.41;;;19.28;38.73
77543;BME280;66669;52.100;5.104;2023-02-28T00:29:53;103183.09;;;19.30;38.97
77543;BME280;66669;52.100;5.104;2023-02-28T00:32:19;103185.47;;;19.23;39.25
77543;BME280;66669;52.100;5.104;2023-02-28T00:34:44;103181.06;;;19.22;38.75
77543;BME280;66669;52.100;5.104;2023-02-28T00:37:10;103171.16;;;19.15;38.65
77543;BME280;66669;52.100;5.104;2023-02-28T00:39:39;103177.25;;;19.17;39.08
77543;BME280;66669;52.100;5.104;2023-02-28T00:42:06;103177.97;;;19.23;38.68
77543;BME280;66669;52.100;5.104;2023-02-28T00:44:32;103173.22;;;19.24;38.95
77543;BME280;66669;52.100;5.104;2023-02-28T00:46:58;103178.38;;;19.30;38.55
77543;BME280;66669;52.100;5.104;2023-02-28T00:49:24;103180.84;;;19.32;38.67
77543;BME280;66669;52.100;5.104;2023-02-28T00:51:50;103173.94;;;19.29;38.33
77543;BME280;66669;52.100;5.104;2023-02-28T00:54:16;103172.50;;;19.32;38.54
77543;BME280;66669;52.100;5.104;2023-02-28T00:56:42;103176.31;;;19.36;38.33
77543;BME280;66669;52.100;5.104;2023-02-28T00:59:08;103170.84;;;19.31;38.50
77543;BME280;66669;52.100;5.104;2023-02-28T01:01:33;103172.50;;;19.32;38.36
77543;BME280;66669;52.100;5.104;2023-02-28T01:03:59;103165.19;;;19.36;38.25
77543;BME280;66669;52.100;5.104;2023-02-28T01:06:24;103169.31;;;19.38;38.17
77543;BME280;66669;52.100;5.104;2023-02-28T01:08:50;103169.09;;;19.35;38.05
77543;BME280;66669;52.100;5.104;2023-02-28T01:11:18;103166.41;;;19.30;38.43
77543;BME280;66669;52.100;5.104;2023-02-28T01:13:45;103170.84;;;19.31;38.41
77543;BME280;66669;52.100;5.104;2023-02-28T01:16:12;103173.19;;;19.37;38.31
77543;BME280;66669;52.100;5.104;2023-02-28T01:18:38;103172.38;;;19.37;38.11
77543;BME280;66669;52.100;5.104;2023-02-28T01:21:09;103169.41;;;19.33;38.26
77543;BME280;66669;52.100;5.104;2023-02-28T01:23:35;103172.09;;;19.38;38.27
77543;BME280;66669;52.100;5.104;2023-02-28T01:26:11;103169.59;;;19.37;38.11
77543;BME280;66669;52.100;5.104;2023-02-28T01:28:37;103173.31;;;19.32;38.41
77543;BME280;66669;52.100;5.104;2023-02-28T01:31:03;103166.63;;;19.33;38.53
77543;BME280;66669;52.100;5.104;2023-02-28T01:33:28;103156.03;;;19.35;38.50
77543;BME280;66669;52.100;5.104;2023-02-28T01:36:09;103154.25;;;19.39;38.38
77543;BME280;66669;52.100;5.104;2023-02-28T01:38:35;103157.75;;;19.45;38.41
77543;BME280;66669;52.100;5.104;2023-02-28T01:41:01;103153.81;;;19.46;38.26
77543;BME280;66669;52.100;5.104;2023-02-28T01:43:53;103157.84;;;19.54;36.96
77543;BME280;66669;52.100;5.104;2023-02-28T01:46:14;103152.59;;;19.52;37.50
77543;BME280;66669;52.100;5.104;2023-02-28T01:49:07;103146.31;;;19.47;37.50
77543;BME280;66669;52.100;5.104;2023-02-28T01:51:46;103149.06;;;19.47;37.50
77543;BME280;66669;52.100;5.104;2023-02-28T01:54:26;103150.03;;;19.42;37.31
77543;BME280;66669;52.100;5.104;2023-02-28T01:57:00;103162.41;;;19.36;37.00
77543;BME280;66669;52.100;5.104;2023-02-28T01:59:34;103156.31;;;19.34;37.21
77543;BME280;66669;52.100;5.104;2023-02-28T02:02:01;103154.28;;;19.26;37.65
77543;BME280;66669;52.100;5.104;2023-02-28T02:04:31;103150.06;;;19.28;37.26
77543;BME280;66669;52.100;5.104;2023-02-28T02:06:58;103151.81;;;19.24;37.65
77543;BME280;66669;52.100;5.104;2023-02-28T02:09:24;103141.13;;;19.17;37.48
77543;BME280;66669;52.100;5.104;2023-02-28T02:11:49;103148.00;;;19.20;37.66
77543;BME280;66669;52.100;5.104;2023-02-28T02:17:24;103131.44;;;19.01;35.51
77543;BME280;66669;52.100;5.104;2023-02-28T02:20:27;103126.63;;;18.00;37.46
77543;BME280;66669;52.100;5.104;2023-02-28T02:26:29;103123.38;;;17.55;38.14
77543;BME280;66669;52.100;5.104;2023-02-28T02:31:53;103131.19;;;17.10;38.41
77543;BME280;66669;52.100;5.104;2023-02-28T02:34:23;103129.53;;;17.09;39.28
77543;BME280;66669;52.100;5.104;2023-02-28T02:36:57;103126.84;;;17.04;38.83
77543;BME280;66669;52.100;5.104;2023-02-28T02:39:33;103134.69;;;16.97;39.37
77543;BME280;66669;52.100;5.104;2023-02-28T02:42:05;103131.09;;;16.96;38.83
77543;BME280;66669;52.100;5.104;2023-02-28T02:44:57;103133.28;;;17.00;39.06
77543;BME280;66669;52.100;5.104;2023-02-28T02:47:27;103139.13;;;16.98;38.84
77543;BME280;66669;52.100;5.104;2023-02-28T02:49:57;103138.88;;;16.94;39.28
77543;BME280;66669;52.100;5.104;2023-02-28T02:52:31;103135.56;;;16.92;38.92
77543;BME280;66669;52.100;5.104;2023-02-28T02:55:00;103132.53;;;16.94;39.00
77543;BME280;66669;52.100;5.104;2023-02-28T02:57:35;103128.06;;;16.93;39.25
77543;BME280;66669;52.100;5.104;2023-02-28T03:00:05;103135.44;;;16.79;39.42
77543;BME280;66669;52.100;5.104;2023-02-28T03:02:35;103131.47;;;16.61;39.21
77543;BME280;66669;52.100;5.104;2023-02-28T03:05:07;103135.34;;;16.60;38.92
77543;BME280;66669;52.100;5.104;2023-02-28T03:07:33;103128.94;;;16.64;39.20
77543;BME280;66669;52.100;5.104;2023-02-28T03:09:58;103131.66;;;16.69;39.29
77543;BME280;66669;52.100;5.104;2023-02-28T03:12:34;103127.88;;;16.60;39.00
77543;BME280;66669;52.100;5.104;2023-02-28T03:20:40;103135.19;;;16.46;39.72
77543;BME280;66669;52.100;5.104;2023-02-28T03:23:17;103134.06;;;16.52;39.26
77543;BME280;66669;52.100;5.104;2023-02-28T03:25:52;103138.78;;;16.46;39.46
77543;BME280;66669;52.100;5.104;2023-02-28T03:31:30;103129.81;;;16.31;39.65
77543;BME280;66669;52.100;5.104;2023-02-28T03:36:45;103130.34;;;16.33;39.76
77543;BME280;66669;52.100;5.104;2023-02-28T03:39:30;103138.16;;;16.26;39.99
77543;BME280;66669;52.100;5.104;2023-02-28T03:42:01;103133.13;;;16.33;40.01
77543;BME280;66669;52.100;5.104;2023-02-28T03:44:36;103128.50;;;16.23;39.90
77543;BME280;66669;52.100;5.104;2023-02-28T03:47:10;103133.69;;;16.30;39.79
77543;BME280;66669;52.100;5.104;2023-02-28T03:49:45;103136.50;;;16.25;39.89
77543;BME280;66669;52.100;5.104;2023-02-28T03:52:12;103140.25;;;16.05;39.99
77543;BME280;66669;52.100;5.104;2023-02-28T03:54:44;103137.44;;;16.15;39.99
77543;BME280;66669;52.100;5.104;2023-02-28T03:57:43;103141.75;;;16.26;40.11
77543;BME280;66669;52.100;5.104;2023-02-28T04:00:15;103141.16;;;16.29;39.78
77543;BME280;66669;52.100;5.104;2023-02-28T04:02:44;103140.91;;;16.26;40.03
77543;BME280;66669;52.100;5.104;2023-02-28T04:05:10;103144.19;;;16.33;40.09
77543;BME280;66669;52.100;5.104;2023-02-28T04:07:37;103140.03;;;16.30;39.70
77543;BME280;66669;52.100;5.104;2023-02-28T04:10:03;103141.63;;;16.41;39.64
77543;BME280;66669;52.100;5.104;2023-02-28T04:12:29;103143.38;;;16.32;39.62
77543;BME280;66669;52.100;5.104;2023-02-28T04:14:55;103140.91;;;16.31;39.71
77543;BME280;66669;52.100;5.104;2023-02-28T04:17:20;103141.38;;;16.38;39.98
77543;BME280;66669;52.100;5.104;2023-02-28T04:19:45;103147.91;;;16.47;39.66
77543;BME280;66669;52.100;5.104;2023-02-28T04:22:11;103141.38;;;16.38;39.10
77543;BME280;66669;52.100;5.104;2023-02-28T04:24:36;103146.31;;;16.41;39.32
77543;BME280;66669;52.100;5.104;2023-02-28T04:27:02;103146.19;;;16.56;39.89
77543;BME280;66669;52.100;5.104;2023-02-28T04:29:31;103148.09;;;16.56;39.32
77543;BME280;66669;52.100;5.104;2023-02-28T04:31:58;103150.16;;;16.45;39.51
77543;BME280;66669;52.100;5.104;2023-02-28T04:34:28;103147.81;;;16.28;39.70
77543;BME280;66669;52.100;5.104;2023-02-28T04:36:54;103150.47;;;16.43;40.15
77543;BME280;66669;52.100;5.104;2023-02-28T04:39:21;103148.91;;;16.32;39.79
77543;BME280;66669;52.100;5.104;2023-02-28T04:41:47;103152.97;;;16.40;39.91
77543;BME280;66669;52.100;5.104;2023-02-28T04:44:13;103147.91;;;16.47;39.31
77543;BME280;66669;52.100;5.104;2023-02-28T04:46:38;103154.50;;;16.51;39.58
77543;BME280;66669;52.100;5.104;2023-02-28T04:49:04;103149.81;;;16.52;39.80
77543;BME280;66669;52.100;5.104;2023-02-28T04:51:29;103154.56;;;16.46;39.89
77543;BME280;66669;52.100;5.104;2023-02-28T04:53:55;103156.41;;;16.56;39.66
77543;BME280;66669;52.100;5.104;2023-02-28T04:56:21;103157.97;;;16.67;40.24
77543;BME280;66669;52.100;5.104;2023-02-28T04:58:47;103156.38;;;16.61;39.36
77543;BME280;66669;52.100;5.104;2023-02-28T05:01:23;103157.97;;;16.67;39.67
77543;BME280;66669;52.100;5.104;2023-02-28T05:03:51;103155.44;;;16.70;39.90
77543;BME280;66669;52.100;5.104;2023-02-28T05:06:17;103159.09;;;16.95;40.61
77543;BME280;66669;52.100;5.104;2023-02-28T05:08:43;103156.03;;;17.39;40.98
77543;BME280;66669;52.100;5.104;2023-02-28T05:11:29;103152.72;;;17.80;40.96
77543;BME280;66669;52.100;5.104;2023-02-28T05:14:04;103158.78;;;17.82;39.79
77543;BME280;66669;52.100;5.104;2023-02-28T05:16:30;103150.47;;;18.01;40.07
77543;BME280;66669;52.100;5.104;2023-02-28T05:18:56;103156.59;;;18.17;39.94
77543;BME280;66669;52.100;5.104;2023-02-28T05:21:26;103151.59;;;18.00;39.17
77543;BME280;66669;52.100;5.104;2023-02-28T05:23:52;103155.94;;;17.87;38.54
77543;BME280;66669;52.100;5.104;2023-02-28T05:26:18;103161.41;;;17.92;39.47
77543;BME280;66669;52.100;5.104;2023-02-28T05:28:44;103162.22;;;17.93;39.27
77543;BME280;66669;52.100;5.104;2023-02-28T05:31:13;103166.75;;;17.89;39.10
77543;BME280;66669;52.100;5.104;2023-02-28T05:33:38;103156.63;;;17.79;38.31
77543;BME280;66669;52.100;5.104;2023-02-28T05:36:05;103161.56;;;17.82;38.68
77543;BME280;66669;52.100;5.104;2023-02-28T05:38:30;103161.91;;;17.94;39.52
77543;BME280;66669;52.100;5.104;2023-02-28T05:40:56;103163.19;;;18.02;39.37
77543;BME280;66669;52.100;5.104;2023-02-28T05:43:21;103159.66;;;18.15;39.61
77543;BME280;66669;52.100;5.104;2023-02-28T05:45:47;103159.59;;;18.20;39.37
77543;BME280;66669;52.100;5.104;2023-02-28T05:48:12;103159.47;;;17.93;38.32
77543;BME280;66669;52.100;5.104;2023-02-28T05:50:37;103164.69;;;18.13;39.34
77543;BME280;66669;52.100;5.104;2023-02-28T05:53:03;103166.78;;;18.03;37.99
77543;BME280;66669;52.100;5.104;2023-02-28T05:55:28;103176.53;;;18.19;39.55
77543;BME280;66669;52.100;5.104;2023-02-28T05:57:54;103166.88;;;18.16;39.07
77543;BME280;66669;52.100;5.104;2023-02-28T06:00:20;103172.47;;;18.30;38.47
77543;BME280;66669;52.100;5.104;2023-02-28T06:02:45;103165.97;;;18.21;37.46
77543;BME280;66669;52.100;5.104;2023-02-28T06:05:16;103171.88;;;18.14;39.02
77543;BME280;66669;52.100;5.104;2023-02-28T06:07:43;103171.16;;;18.09;37.94
77543;BME280;66669;52.100;5.104;2023-02-28T06:10:10;103171.78;;;18.19;39.26
77543;BME280;66669;52.100;5.104;2023-02-28T06:12:37;103170.47;;;17.98;38.51
77543;BME280;66669;52.100;5.104;2023-02-28T06:15:03;103179.06;;;18.15;39.43
77543;BME280;66669;52.100;5.104;2023-02-28T06:17:31;103171.50;;;18.21;38.24
77543;BME280;66669;52.100;5.104;2023-02-28T06:19:57;103170.94;;;18.38;39.18
77543;BME280;66669;52.100;5.104;2023-02-28T06:22:22;103177.03;;;18.54;38.88
77543;BME280;66669;52.100;5.104;2023-02-28T06:24:47;103181.13;;;18.42;38.61
77543;BME280;66669;52.100;5.104;2023-02-28T06:27:13;103174.13;;;18.45;38.95
77543;BME280;66669;52.100;5.104;2023-02-28T06:29:38;103176.31;;;18.48;38.73
77543;BME280;66669;52.100;5.104;2023-02-28T06:32:07;103181.50;;;18.36;38.03
77543;BME280;66669;52.100;5.104;2023-02-28T06:34:32;103176.84;;;18.17;37.84
77543;BME280;66669;52.100;5.104;2023-02-28T06:36:59;103181.97;;;17.91;37.90
77543;BME280;66669;52.100;5.104;2023-02-28T06:39:28;103175.81;;;17.76;37.83
77543;BME280;66669;52.100;5.104;2023-02-28T06:41:53;103183.88;;;17.53;37.66
77543;BME280;66669;52.100;5.104;2023-02-28T06:44:18;103178.41;;;17.24;38.24
77543;BME280;66669;52.100;5.104;2023-02-28T06:46:44;103174.94;;;17.13;38.11
77543;BME280;66669;52.100;5.104;2023-02-28T06:49:10;103179.81;;;16.98;38.29
77543;BME280;66669;52.100;5.104;2023-02-28T06:51:38;103181.34;;;16.85;38.21
77543;BME280;66669;52.100;5.104;2023-02-28T06:54:04;103183.03;;;16.81;38.16
77543;BME280;66669;52.100;5.104;2023-02-28T06:56:30;103186.44;;;16.73;38.54
77543;BME280;66669;52.100;5.104;2023-02-28T06:58:55;103188.78;;;16.60;38.49
77543;BME280;66669;52.100;5.104;2023-02-28T07:01:21;103190.03;;;16.44;38.82
77543;BME280;66669;52.100;5.104;2023-02-28T07:03:50;103191.31;;;16.23;39.11
77543;BME280;66669;52.100;5.104;2023-02-28T07:06:18;103177.22;;;16.19;39.25
77543;BME280;66669;52.100;5.104;2023-02-28T07:08:44;103188.34;;;16.14;38.88
77543;BME280;66669;52.100;5.104;2023-02-28T07:11:10;103188.09;;;16.05;39.06
77543;BME280;66669;52.100;5.104;2023-02-28T07:13:36;103192.53;;;16.06;39.11
77543;BME280;66669;52.100;5.104;2023-02-28T07:16:04;103190.09;;;16.00;39.35
77543;BME280;66669;52.100;5.104;2023-02-28T07:18:30;103183.25;;;15.87;39.33
77543;BME280;66669;52.100;5.104;2023-02-28T07:20:56;103191.59;;;15.82;39.75
77543;BME280;66669;52.100;5.104;2023-02-28T07:23:22;103200.41;;;15.84;39.46
77543;BME280;66669;52.100;5.104;2023-02-28T07:25:48;103197.16;;;15.77;39.58
77543;BME280;66669;52.100;5.104;2023-02-28T07:28:14;103190.81;;;15.71;39.91
77543;BME280;66669;52.100;5.104;2023-02-28T07:30:40;103186.97;;;15.67;39.94
77543;BME280;66669;52.100;5.104;2023-02-28T07:33:05;103178.13;;;15.65;39.93
77543;BME280;66669;52.100;5.104;2023-02-28T07:35:31;103190.84;;;15.61;39.87
77543;BME280;66669;52.100;5.104;2023-02-28T07:37:59;103189.19;;;15.55;39.76
77543;BME280;66669;52.100;5.104;2023-02-28T07:40:25;103192.78;;;15.60;39.84
77543;BME280;66669;52.100;5.104;2023-02-28T07:42:51;103188.41;;;15.49;39.87
77543;BME280;66669;52.100;5.104;2023-02-28T07:45:16;103190.88;;;15.56;39.98
77543;BME280;66669;52.100;5.104;2023-02-28T07:47:43;103193.41;;;15.47;40.44
77543;BME280;66669;52.100;5.104;2023-02-28T07:50:11;103186.19;;;15.46;40.40
77543;BME280;66669;52.100;5.104;2023-02-28T07:52:37;103196.19;;;15.37;40.76
77543;BME280;66669;52.100;5.104;2023-02-28T07:55:04;103191.22;;;15.39;40.96
77543;BME280;66669;52.100;5.104;2023-02-28T07:57:30;103194.78;;;15.44;40.84
77543;BME280;66669;52.100;5.104;2023-02-28T07:59:55;103195.59;;;15.50;40.79
77543;BME280;66669;52.100;5.104;2023-02-28T08:02:21;103193.91;;;15.54;40.84
77543;BME280;66669;52.100;5.104;2023-02-28T08:04:46;103190.56;;;15.62;40.88
77543;BME280;66669;52.100;5.104;2023-02-28T08:07:13;103196.91;;;15.63;40.59
77543;BME280;66669;52.100;5.104;2023-02-28T08:09:42;103202.75;;;15.56;41.05
77543;BME280;66669;52.100;5.104;2023-02-28T08:12:09;103196.41;;;15.56;40.82
77543;BME280;66669;52.100;5.104;2023-02-28T08:14:35;103200.25;;;15.55;40.98
77543;BME280;66669;52.100;5.104;2023-02-28T08:17:01;103200.03;;;15.51;41.19
77543;BME280;66669;52.100;5.104;2023-02-28T08:19:26;103209.13;;;15.52;41.05
77543;BME280;66669;52.100;5.104;2023-02-28T08:21:52;103204.72;;;15.51;41.05
77543;BME280;66669;52.100;5.104;2023-02-28T08:24:17;103213.03;;;15.40;41.19
77543;BME280;66669;52.100;5.104;2023-02-28T08:26:43;103226.03;;;15.40;41.21
77543;BME280;66669;52.100;5.104;2023-02-28T08:29:08;103213.94;;;15.26;41.44
77543;BME280;66669;52.100;5.104;2023-02-28T08:31:33;103215.59;;;15.27;41.44
77543;BME280;66669;52.100;5.104;2023-02-28T08:34:05;103213.91;;;15.31;41.27
77543;BME280;66669;52.100;5.104;2023-02-28T08:36:30;103209.97;;;15.42;41.53
77543;BME280;66669;52.100;5.104;2023-02-28T08:38:56;103215.91;;;15.85;42.16
77543;BME280;66669;52.100;5.104;2023-02-28T08:41:22;103213.59;;;16.36;41.95
77543;BME280;66669;52.100;5.104;2023-02-28T08:43:47;103206.41;;;16.69;42.06
77543;BME280;66669;52.100;5.104;2023-02-28T08:46:13;103209.81;;;16.90;42.07
77543;BME280;66669;52.100;5.104;2023-02-28T08:48:39;103210.47;;;17.06;41.95
77543;BME280;66669;52.100;5.104;2023-02-28T08:51:07;103217.22;;;17.24;41.42
77543;BME280;66669;52.100;5.104;2023-02-28T08:53:37;103219.28;;;17.37;41.50
77543;BME280;66669;52.100;5.104;2023-02-28T08:56:09;103206.09;;;17.48;41.29
77543;BME280;66669;52.100;5.104;2023-02-28T08:58:35;103219.25;;;17.61;41.19
77543;BME280;66669;52.100;5.104;2023-02-28T09:01:10;103204.09;;;17.73;40.97
77543;BME280;66669;52.100;5.104;2023-02-28T09:03:37;103208.19;;;17.80;41.01
77543;BME280;66669;52.100;5.104;2023-02-28T09:06:03;103198.06;;;17.89;40.73
77543;BME280;66669;52.100;5.104;2023-02-28T09:08:30;103208.72;;;18.01;40.44
77543;BME280;66669;52.100;5.104;2023-02-28T09:10:56;103203.84;;;18.12;40.16
77543;BME280;66669;52.100;5.104;2023-02-28T09:13:24;103208.69;;;18.20;39.96
77543;BME280;66669;52.100;5.104;2023-02-28T09:15:49;103219.19;;;18.23;39.95
77543;BME280;66669;52.100;5.104;2023-02-28T09:18:15;103220.03;;;18.24;39.71
77543;BME280;66669;52.100;5.104;2023-02-28T09:20:42;103209.38;;;18.31;39.32
77543;BME280;66669;52.100;5.104;2023-02-28T09:23:09;103221.19;;;18.36;39.40
77543;BME280;66669;52.100;5.104;2023-02-28T09:25:35;103207.44;;;18.45;39.38
77543;BME280;66669;52.100;5.104;2023-02-28T09:28:00;103213.44;;;18.52;39.26
77543;BME280;66669;52.100;5.104;2023-02-28T09:30:26;103212.75;;;18.60;39.16
77543;BME280;66669;52.100;5.104;2023-02-28T09:32:52;103222.72;;;18.61;38.86
77543;BME280;66669;52.100;5.104;2023-02-28T09:35:19;103218.31;;;18.60;38.83
77543;BME280;66669;52.100;5.104;2023-02-28T09:37:46;103223.41;;;18.72;38.77
77543;BME280;66669;52.100;5.104;2023-02-28T09:40:15;103222.50;;;18.77;38.58
77543;BME280;66669;52.100;5.104;2023-02-28T09:42:46;103220.53;;;18.77;38.47
77543;BME280;66669;52.100;5.104;2023-02-28T09:45:26;103231.56;;;18.82;38.39
77543;BME280;66669;52.100;5.104;2023-02-28T09:47:56;103219.63;;;18.82;38.27
77543;BME280;66669;52.100;5.104;2023-02-28T09:50:33;103222.00;;;18.88;37.97
77543;BME280;66669;52.100;5.104;2023-02-28T09:53:05;103220.75;;;18.81;37.89
77543;BME280;66669;52.100;5.104;2023-02-28T09:55:42;103230.34;;;18.88;38.19
77543;BME280;66669;52.100;5.104;2023-02-28T09:58:29;103223.53;;;18.94;38.28
77543;BME280;66669;52.100;5.104;2023-02-28T10:01:02;103226.44;;;19.03;38.16
77543;BME280;66669;52.100;5.104;2023-02-28T10:03:33;103226.66;;;19.07;37.60
77543;BME280;66669;52.100;5.104;2023-02-28T10:06:11;103218.00;;;19.08;37.33
77543;BME280;66669;52.100;5.104;2023-02-28T10:08:42;103225.94;;;19.15;37.41
77543;BME280;66669;52.100;5.104;2023-02-28T10:11:14;103227.78;;;19.19;36.84
77543;BME280;66669;52.100;5.104;2023-02-28T10:19:46;103218.13;;;19.31;37.26
77543;BME280;66669;52.100;5.104;2023-02-28T10:22:19;103209.66;;;19.36;37.40
77543;BME280;66669;52.100;5.104;2023-02-28T10:24:49;103215.31;;;19.44;37.31
77543;BME280;66669;52.100;5.104;2023-02-28T10:29:47;103208.91;;;19.58;37.10
77543;BME280;66669;52.100;5.104;2023-02-28T10:32:17;103210.28;;;19.60;36.50
77543;BME280;66669;52.100;5.104;2023-02-28T10:34:43;103209.84;;;19.67;36.84
77543;BME280;66669;52.100;5.104;2023-02-28T10:37:09;103196.16;;;19.71;36.73
77543;BME280;66669;52.100;5.104;2023-02-28T10:39:41;103205.44;;;19.66;36.33
77543;BME280;66669;52.100;5.104;2023-02-28T10:42:30;103204.50;;;19.71;36.73
77543;BME280;66669;52.100;5.104;2023-02-28T10:47:33;103198.50;;;19.77;36.26
77543;BME280;66669;52.100;5.104;2023-02-28T10:49:59;103204.78;;;19.83;36.36
77543;BME280;66669;52.100;5.104;2023-02-28T10:52:36;103193.66;;;19.83;35.40
77543;BME280;66669;52.100;5.104;2023-02-28T10:55:35;103189.91;;;19.87;35.90
77543;BME280;66669;52.100;5.104;2023-02-28T10:58:00;103196.19;;;19.93;36.11
77543;BME280;66669;52.100;5.104;2023-02-28T11:00:32;103193.84;;;19.86;35.59
77543;BME280;66669;52.100;5.104;2023-02-28T11:02:59;103191.88;;;19.87;35.88
77543;BME280;66669;52.100;5.104;2023-02-28T11:05:35;103188.16;;;19.91;35.28
77543;BME280;66669;52.100;5.104;2023-02-28T11:08:14;103173.41;;;19.91;35.39
77543;BME280;66669;52.100;5.104;2023-02-28T11:10:45;103184.06;;;19.89;35.90
77543;BME280;66669;52.100;5.104;2023-02-28T11:13:21;103184.00;;;20.03;36.05
77543;BME280;66669;52.100;5.104;2023-02-28T11:15:52;103173.81;;;19.98;34.89
77543;BME280;66669;52.100;5.104;2023-02-28T11:18:26;103174.44;;;19.95;34.54
77543;BME280;66669;52.100;5.104;2023-02-28T11:20:56;103176.22;;;19.91;34.09
77543;BME280;66669;52.100;5.104;2023-02-28T11:23:25;103160.66;;;19.90;34.70
77543;BME280;66669;52.100;5.104;2023-02-28T11:25:55;103160.94;;;19.88;35.21
77543;BME280;66669;52.100;5.104;2023-02-28T11:28:34;103163.44;;;19.90;35.06
77543;BME280;66669;52.100;5.104;2023-02-28T11:31:14;103157.88;;;19.90;35.06
77543;BME280;66669;52.100;5.104;2023-02-28T11:36:16;103150.06;;;20.01;35.39
77543;BME280;66669;52.100;5.104;2023-02-28T11:38:42;103150.53;;;19.94;33.53
77543;BME280;66669;52.100;5.104;2023-02-28T11:46:55;103154.97;;;19.95;34.86
77543;BME280;66669;52.100;5.104;2023-02-28T11:49:29;103146.59;;;19.95;33.34
77543;BME280;66669;52.100;5.104;2023-02-28T12:02:59;103130.78;;;20.04;34.92
77543;BME280;66669;52.100;5.104;2023-02-28T12:05:34;103133.63;;;20.13;35.23
77543;BME280;66669;52.100;5.104;2023-02-28T12:22:26;103122.34;;;20.18;34.32
77543;BME280;66669;52.100;5.104;2023-02-28T12:27:34;103124.31;;;20.17;33.97
77543;BME280;66669;52.100;5.104;2023-02-28T12:30:08;103118.78;;;19.95;31.73
77543;BME280;66669;52.100;5.104;2023-02-28T12:32:43;103126.03;;;20.05;33.82
77543;BME280;66669;52.100;5.104;2023-02-28T12:35:17;103126.00;;;20.18;34.79
77543;BME280;66669;52.100;5.104;2023-02-28T12:37:49;103115.72;;;20.28;34.84
77543;BME280;66669;52.100;5.104;2023-02-28T12:40:22;103119.19;;;20.33;34.67
77543;BME280;66669;52.100;5.104;2023-02-28T12:43:01;103110.38;;;20.40;34.46
77543;BME280;66669;52.100;5.104;2023-02-28T12:46:07;103103.25;;;20.25;33.16
77543;BME280;66669;52.100;5.104;2023-02-28T12:48:45;103105.94;;;20.39;33.29
77543;BME280;66669;52.100;5.104;2023-02-28T12:51:12;103107.47;;;20.45;33.59
77543;BME280;66669;52.100;5.104;2023-02-28T12:54:04;103099.31;;;20.49;34.26
77543;BME280;66669;52.100;5.104;2023-02-28T12:56:42;103106.06;;;20.56;33.86
77543;BME280;66669;52.100;5.104;2023-02-28T13:10:49;103093.78;;;20.57;32.73
77543;BME280;66669;52.100;5.104;2023-02-28T13:13:29;103086.47;;;20.48;31.43
77543;BME280;66669;52.100;5.104;2023-02-28T13:18:45;103081.13;;;20.51;31.94
77543;BME280;66669;52.100;5.104;2023-02-28T13:21:24;103078.38;;;20.29;30.89
77543;BME280;66669;52.100;5.104;2023-02-28T13:39:55;103068.41;;;20.67;34.14
77543;BME280;66669;52.100;5.104;2023-02-28T13:42:46;103080.09;;;20.78;34.48
77543;BME280;66669;52.100;5.104;2023-02-28T13:50:19;103068.16;;;20.86;34.29
77543;BME280;66669;52.100;5.104;2023-02-28T14:01:14;103058.22;;;20.63;32.46
77543;BME280;66669;52.100;5.104;2023-02-28T14:06:50;103056.81;;;20.74;33.96
77543;BME280;66669;52.100;5.104;2023-02-28T14:09:23;103054.84;;;20.83;34.29
77543;BME280;66669;52.100;5.104;2023-02-28T14:11:50;103047.31;;;20.84;34.17
77543;BME280;66669;52.100;5.104;2023-02-28T14:17:00;103049.63;;;20.90;33.38
77543;BME280;66669;52.100;5.104;2023-02-28T14:19:29;103045.84;;;20.86;31.73
77543;BME280;66669;52.100;5.104;2023-02-28T14:27:45;103031.41;;;20.84;33.15
77543;BME280;66669;52.100;5.104;2023-02-28T14:33:11;103041.66;;;20.58;29.44
77543;BME280;66669;52.100;5.104;2023-02-28T14:36:06;103037.72;;;20.59;30.67
77543;BME280;66669;52.100;5.104;2023-02-28T14:38:40;103028.94;;;20.74;32.90
77543;BME280;66669;52.100;5.104;2023-02-28T14:41:16;103036.31;;;20.79;33.12
77543;BME280;66669;52.100;5.104;2023-02-28T14:43:51;103030.25;;;20.85;33.37
77543;BME280;66669;52.100;5.104;2023-02-28T14:46:17;103041.28;;;20.90;33.85
77543;BME280;66669;52.100;5.104;2023-02-28T14:48:48;103040.28;;;20.95;33.65
77543;BME280;66669;52.100;5.104;2023-02-28T14:51:19;103032.75;;;20.96;33.79
77543;BME280;66669;52.100;5.104;2023-02-28T14:53:48;103030.22;;;20.68;28.70
77543;BME280;66669;52.100;5.104;2023-02-28T14:56:38;103028.44;;;20.81;32.56
77543;BME280;66669;52.100;5.104;2023-02-28T14:59:17;103026.53;;;20.90;33.97
77543;BME280;66669;52.100;5.104;2023-02-28T15:01:47;103028.78;;;20.79;32.70
77543;BME280;66669;52.100;5.104;2023-02-28T15:04:26;103032.75;;;20.87;32.55
77543;BME280;66669;52.100;5.104;2023-02-28T15:07:14;103037.31;;;20.83;31.41
77543;BME280;66669;52.100;5.104;2023-02-28T15:09:40;103023.03;;;20.84;32.63